x

Nw Lake Ontario Ajax (45159) Wave Buoy

12:00am - Tue 30th May 2017 All times are CDT. -5 hours from GMT.

  • Sig Wave height 1.0ft
  • Peak Period 4s
  • Wind
    7mph, 11mph gusts
  • Sea Temp 49°f
  • Air Temp 53°f
  • Sea Pressure 1011mb
  • Nw Lake Ontario Ajax
  • Nw Lake Ontario Ajax

More Historic Weather Station data

Upgrade to MSW Pro to gain access to the past 30 days of data for over 8000 Wavebouys and Weather Stations around the globe.

Join Pro

Comparision Forecast

View Surf forecast
   
Tue 05/30 12:00am 1ft 4s 7 11 mph 1011mb 49f 53f
Mon 05/29 11:00pm 1ft 4s 2 7 mph 1010.5mb 49f 53f
10:00pm 1ft 3s 9 9 mph 1010.6mb 52f 57f
9:00pm 1ft 3s 2 2 mph 1010.8mb 50f 55f
8:00pm 1ft 3s 2 4 mph 1010.7mb 49f 60f
7:00pm 1.3ft 3s 11 18 mph 1010mb 49f 61f
6:00pm 1.3ft 3s 16 18 mph 1009.2mb 49f 57f
5:00pm 1ft 3s 18 20 mph 1008.8mb 49f 58f
4:00pm 1ft 3s 13 18 mph 1008.7mb 49f 56f
3:00pm 1ft 3s 13 16 mph 1008.3mb 49f 56f
2:00pm 0.7ft 3s 11 13 mph 1008.3mb 49f 54f
1:00pm 1ft 3s 11 13 mph 1008mb 49f 55f
12:00pm 1ft 3s 13 13 mph 1007.6mb 48f 53f
11:00am 1ft 3s 13 16 mph 1007.8mb 48f 53f
10:00am 0.7ft 3s 13 16 mph 1007mb 48f 52f
9:00am 1ft 3s 9 9 mph 1007mb 47f 50f
8:00am 0.7ft 3s 11 13 mph 1006.5mb 47f 51f
7:00am 0.7ft 3s 13 16 mph 1006.5mb 47f 51f
6:00am 0.7ft 2s 9 11 mph 1005.9mb 47f 54f
5:00am 0.7ft 3s 9 13 mph 1004.8mb 47f 53f
4:00am 1ft 3s 4 7 mph 1005mb 47f 53f
3:00am 0.7ft 3s 11 13 mph 1004.9mb 47f 54f
2:00am 0.7ft 3s 2 4 mph 1004.6mb 47f 53f
1:00am 0.7ft 4s 2 4 mph 1004.5mb 47f 51f
12:00am 0.7ft 4s 4 7 mph 1004.5mb 47f 51f
Sun 05/28 11:00pm 0.7ft 3s 7 7 mph 1004.9mb 47f 50f
10:00pm 0.7ft 3s 9 11 mph 1005.4mb 47f 52f
9:00pm 0.7ft 3s 9 9 mph 1005.6mb 47f 55f
8:00pm 1ft 3s 7 9 mph 1005.9mb 47f 53f
7:00pm 1ft 3s 9 11 mph 1006.5mb 47f 53f
6:00pm 1ft 3s 11 11 mph 1006.7mb 47f 53f
5:00pm 1ft 3s 11 13 mph 1006.9mb 47f 52f
4:00pm 1ft 3s 11 13 mph 1007.4mb 47f 52f
3:00pm 1ft 3s 11 13 mph 1008.2mb 47f 51f
2:00pm 1ft 3s 11 13 mph 1009mb 47f 51f
1:00pm 0.7ft 3s 13 13 mph 1009.6mb 47f 51f
12:00pm 0.7ft 2s 11 13 mph 1010.2mb 47f 49f
11:00am 0.3ft 2s 9 11 mph 1011.3mb 47f 48f
10:00am 0.3ft 2s 9 11 mph 1011.2mb 48f 48f
9:00am 0.3ft 2s 9 9 mph 1010.9mb 48f 49f
8:00am  -  3s 7 7 mph 1011.4mb 48f 49f
7:00am  -  4s 7 9 mph 1011.5mb 48f 48f
6:00am  -  4s 4 7 mph 1011.7mb 48f 48f
5:00am  -  4s 2 2 mph 1012.2mb 48f 48f
4:00am  -  4s 4 7 mph 1011.6mb 48f 49f
3:00am  -  4s 4 4 mph 1011.9mb 48f 53f
2:00am  -  3s  -  2 mph 1012.4mb 48f 50f
1:00am  -  4s 2 2 mph 1012.4mb 48f 52f
12:00am  -  3s 2 4 mph 1012.4mb 48f 50f
Sat 05/27 11:00pm  -  4s 4 7 mph 1013.2mb 48f 49f
10:00pm  -  2s 2 4 mph 1012.5mb 48f 49f
9:00pm  -  2s 2 2 mph 1012.9mb 48f 49f
8:00pm  -  3s 4 4 mph 1012.9mb 48f 50f
7:00pm  -  4s 7 7 mph 1013mb 49f 50f
6:00pm  -  4s  -  2 mph 1013.3mb 49f 50f
5:00pm 0.3ft 3s 2 2 mph 1013.1mb 49f 48f
4:00pm 0.3ft 3s 2 4 mph 1012.9mb 49f 49f
3:00pm  -  2s 4 7 mph 1012.9mb 49f 49f
2:00pm  -  2s 4 7 mph 1012.9mb 49f 49f
1:00pm 0.3ft 2s 7 7 mph 1013.2mb 48f 49f
12:00pm 0.3ft 2s 4 7 mph 1013.8mb 48f 49f
11:00am  -  3s 4 7 mph 1013.4mb 47f 48f
10:00am  -  3s 9 11 mph 1013mb 47f 49f
9:00am  -  3s 7 9 mph 1012.8mb 48f 52f
8:00am 0.3ft 3s 4 4 mph 1012.5mb 47f 55f
7:00am  -  2s 4 4 mph 1012.3mb 47f 53f
6:00am 0.3ft 4s 2 2 mph 1012.2mb 47f 53f
5:00am 0.3ft 2s 4 7 mph 1011.6mb 47f 54f
4:00am 0.3ft 2s 4 7 mph 1011.4mb 47f 53f
3:00am 0.3ft 2s 4 4 mph 1011.5mb 47f 53f
2:00am 0.3ft 2s 9 9 mph 1011.6mb 46f 52f
1:00am 0.3ft 2s 9 9 mph 1011.1mb 47f 55f
12:00am 0.3ft 2s 4 7 mph 1010.9mb 46f 57f
Fri 05/26 11:00pm 0.3ft 2s 9 9 mph 1011mb 46f 57f
10:00pm 0.3ft 2s 7 7 mph 1010.9mb 47f 56f
9:00pm 0.3ft 2s 7 7 mph 1010.5mb 46f 50f
8:00pm 0.3ft 2s 9 9 mph 1009.6mb 46f 59f
7:00pm 0.3ft 2s 4 4 mph 1009.3mb 46f 53f
6:00pm 0.3ft 2s 7 9 mph 1008.9mb 47f 50f
5:00pm 0.3ft 2s 9 11 mph 1008.1mb 47f 51f
4:00pm 0.7ft 2s 9 9 mph 1007.4mb 47f 50f
3:00pm 0.3ft 2s 9 11 mph 1007.2mb 47f 51f
2:00pm 0.3ft 2s 11 13 mph 1006.9mb 47f 51f
1:00pm 0.3ft 4s 11 13 mph 1006.6mb 47f 49f
12:00pm 0.3ft 4s 9 9 mph 1005.9mb 46f 50f
11:00am 0.7ft 4s 9 9 mph 1005.7mb 46f 50f
10:00am 0.7ft 4s 9 9 mph 1005.5mb 45f 49f
9:00am 0.7ft 4s 9 9 mph 1005.1mb 46f 48f
8:00am 1ft 4s 7 7 mph 1004.7mb 46f 50f
7:00am 1ft 4s 7 7 mph 1004.1mb 46f 49f